Terminal Aerodrome Forecast
Issued by NWS

Home | Current Version | Previous Version | Text Only | Print | Product List | Glossary On
Versions: 1 2 3 4 5 6 7 8 9 10 11 12 13 14 15
000
FTUS43 KMPX 041120
TAFRNH
TAF
KRNH 041120Z 0412/0512 VRB03KT 4SM BR BKN250
     FM041330 20003KT 6SM BR BKN250
     FM041700 19006KT P6SM SCT050 BKN250
     FM050200 18004KT P6SM SKC=

USA.gov is the U.S. government's official web portal to all federal, state and local government web resources and services.